Jayton, Texas
Current Conditions -  °F | °C
As of 2:15 AM on Thursday 27 Nov 2014 (Local Time) from KSNK Reporting Station
Clear Clear  
Wind Chill:   Ceiling: Unl
Heat Index:   Visibility: 10mi
Dew Point:   Wind: 5mph
Humidity: 75%   Direction: 30°NNE
Pressure: 30.42"   Gusts: NA
Location:  33.25°N, 100.57°W
Report Text: KSNK 270815Z AUTO 03004KT 10SM CLR 04/00 A3042 RMK AO2 T00420002
Loading
Personal Weather Stations






























Interactive Weather Map New forecast layout! Learn more

10-Day Weather Forecast

Advertisements
Track Severe Weather on mobile